Time,TemperatureF,DewpointF,PressureIn,WindDirection,WindDirectionDegrees,WindSpeedMPH,WindSpeedGustMPH,Humidity,HourlyPrecipIn,Conditions,Clouds,dailyrainin,SoftwareType,DateUTC
2013-02-05 00:00:00,16.6,7.9,-100.00,North,-999,-999.0,-999.0,68,-99.99,,,-99.99,,2013-02-05 05:00:00,
2013-02-05 00:10:00,16.6,7.5,-100.00,North,-999,-999.0,-999.0,67,-99.99,,,-99.99,,2013-02-05 05:10:00,
2013-02-05 00:20:00,16.7,8.1,-100.00,North,-999,-999.0,-999.0,68,-99.99,,,-99.99,,2013-02-05 05:20:00,
2013-02-05 00:30:00,16.9,7.9,-100.00,North,-999,-999.0,-999.0,67,-99.99,,,-99.99,,2013-02-05 05:30:00,
2013-02-05 00:40:00,16.7,7.7,-100.00,North,-999,-999.0,-999.0,67,-99.99,,,-99.99,,2013-02-05 05:40:00,
2013-02-05 00:50:00,16.9,7.9,-100.00,North,-999,-999.0,-999.0,67,-99.99,,,-99.99,,2013-02-05 05:50:00,
2013-02-05 01:00:00,16.9,7.9,-100.00,North,-999,-999.0,-999.0,67,-99.99,,,-99.99,,2013-02-05 06:00:00,
2013-02-05 01:10:00,16.9,8.2,-100.00,North,-999,-999.0,-999.0,68,-99.99,,,-99.99,,2013-02-05 06:10:00,
2013-02-05 01:20:00,16.7,7.7,-100.00,North,-999,-999.0,-999.0,67,-99.99,,,-99.99,,2013-02-05 06:20:00,
2013-02-05 01:30:00,16.9,7.9,-100.00,North,-999,-999.0,-999.0,67,-99.99,,,-99.99,,2013-02-05 06:30:00,
2013-02-05 01:40:00,16.9,7.9,-100.00,North,-999,-999.0,-999.0,67,-99.99,,,-99.99,,2013-02-05 06:40:00,
2013-02-05 01:50:00,16.9,7.9,-100.00,North,-999,-999.0,-999.0,67,-99.99,,,-99.99,,2013-02-05 06:50:00,
2013-02-05 02:00:00,16.9,7.9,-100.00,North,-999,-999.0,-999.0,67,-99.99,,,-99.99,,2013-02-05 07:00:00,
2013-02-05 02:10:00,16.9,7.9,-100.00,North,-999,-999.0,-999.0,67,-99.99,,,-99.99,,2013-02-05 07:10:00,
2013-02-05 02:20:00,16.9,7.9,-100.00,North,-999,-999.0,-999.0,67,-99.99,,,-99.99,,2013-02-05 07:20:00,
2013-02-05 02:30:00,17.3,8.2,-100.00,North,-999,-999.0,-999.0,67,-99.99,,,-99.99,,2013-02-05 07:30:00,
2013-02-05 02:40:00,17.1,8.1,-100.00,North,-999,-999.0,-999.0,67,-99.99,,,-99.99,,2013-02-05 07:40:00,
2013-02-05 02:50:00,17.3,8.6,-100.00,North,-999,-999.0,-999.0,68,-99.99,,,-99.99,,2013-02-05 07:50:00,
2013-02-05 03:00:00,17.1,8.4,-100.00,North,-999,-999.0,-999.0,68,-99.99,,,-99.99,,2013-02-05 08:00:00,
2013-02-05 03:10:00,17.3,9.0,-100.00,North,-999,-999.0,-999.0,69,-99.99,,,-99.99,,2013-02-05 08:10:00,
2013-02-05 03:20:00,17.3,9.0,-100.00,North,-999,-999.0,-999.0,69,-99.99,,,-99.99,,2013-02-05 08:20:00,
2013-02-05 03:30:00,17.3,9.0,-100.00,North,-999,-999.0,-999.0,69,-99.99,,,-99.99,,2013-02-05 08:30:00,
2013-02-05 03:40:00,17.3,9.0,-100.00,North,-999,-999.0,-999.0,69,-99.99,,,-99.99,,2013-02-05 08:40:00,
2013-02-05 03:50:00,17.5,9.1,-100.00,North,-999,-999.0,-999.0,69,-99.99,,,-99.99,,2013-02-05 08:50:00,
2013-02-05 04:00:00,17.5,9.1,-100.00,North,-999,-999.0,-999.0,69,-99.99,,,-99.99,,2013-02-05 09:00:00,
2013-02-05 04:10:00,-1.0,0.0,-100.00,North,-999,-999.0,-999.0,0,-99.99,,,-99.99,,2013-02-05 09:10:00,
2013-02-05 04:20:00,17.5,9.1,-100.00,North,-999,-999.0,-999.0,69,-99.99,,,-99.99,,2013-02-05 09:20:00,
2013-02-05 04:30:00,17.5,9.1,-100.00,North,-999,-999.0,-999.0,69,-99.99,,,-99.99,,2013-02-05 09:30:00,
2013-02-05 04:40:00,17.5,9.1,-100.00,North,-999,-999.0,-999.0,69,-99.99,,,-99.99,,2013-02-05 09:40:00,
2013-02-05 04:50:00,-1.0,0.0,-100.00,North,-999,-999.0,-999.0,0,-99.99,,,-99.99,,2013-02-05 09:50:00,
2013-02-05 05:00:00,17.5,9.1,-100.00,North,-999,-999.0,-999.0,69,-99.99,,,-99.99,,2013-02-05 10:00:00,
2013-02-05 05:10:00,17.5,9.5,-100.00,North,-999,-999.0,-999.0,70,-99.99,,,-99.99,,2013-02-05 10:10:00,
2013-02-05 05:20:00,17.5,9.5,-100.00,North,-999,-999.0,-999.0,70,-99.99,,,-99.99,,2013-02-05 10:20:00,
2013-02-05 05:30:00,17.5,9.5,-100.00,North,-999,-999.0,-999.0,70,-99.99,,,-99.99,,2013-02-05 10:30:00,
2013-02-05 05:40:00,17.6,9.5,-100.00,North,-999,-999.0,-999.0,70,-99.99,,,-99.99,,2013-02-05 10:40:00,
2013-02-05 05:50:00,17.6,9.5,-100.00,North,-999,-999.0,-999.0,70,-99.99,,,-99.99,,2013-02-05 10:50:00,
2013-02-05 06:00:00,17.6,9.5,-100.00,North,-999,-999.0,-999.0,70,-99.99,,,-99.99,,2013-02-05 11:00:00,
2013-02-05 06:10:00,17.6,9.5,-100.00,North,-999,-999.0,-999.0,70,-99.99,,,-99.99,,2013-02-05 11:10:00,
2013-02-05 06:20:00,17.5,9.5,-100.00,North,-999,-999.0,-999.0,70,-99.99,,,-99.99,,2013-02-05 11:20:00,
2013-02-05 06:30:00,17.6,9.1,-100.00,North,-999,-999.0,-999.0,69,-99.99,,,-99.99,,2013-02-05 11:30:00,
2013-02-05 06:40:00,17.6,9.1,-100.00,North,-999,-999.0,-999.0,69,-99.99,,,-99.99,,2013-02-05 11:40:00,
2013-02-05 06:50:00,18.0,9.5,-100.00,North,-999,-999.0,-999.0,69,-99.99,,,-99.99,,2013-02-05 11:50:00,
2013-02-05 07:00:00,18.2,10.0,-100.00,North,-999,-999.0,-999.0,70,-99.99,,,-99.99,,2013-02-05 12:00:00,
2013-02-05 07:10:00,18.4,10.0,-100.00,North,-999,-999.0,-999.0,69,-99.99,,,-99.99,,2013-02-05 12:10:00,
2013-02-05 07:20:00,18.4,10.2,-100.00,North,-999,-999.0,-999.0,70,-99.99,,,-99.99,,2013-02-05 12:20:00,
2013-02-05 07:30:00,18.9,10.8,-100.00,North,-999,-999.0,-999.0,70,-99.99,,,-99.99,,2013-02-05 12:30:00,
2013-02-05 07:40:00,-1.0,0.0,-100.00,North,-999,-999.0,-999.0,0,-99.99,,,-99.99,,2013-02-05 12:40:00,
2013-02-05 07:50:00,-1.0,0.0,-100.00,North,-999,-999.0,-999.0,0,-99.99,,,-99.99,,2013-02-05 12:50:00,
2013-02-05 08:00:00,20.0,11.5,-100.00,North,-999,-999.0,-999.0,69,-99.99,,,-99.99,,2013-02-05 13:00:00,
2013-02-05 08:10:00,20.3,11.1,-100.00,North,-999,-999.0,-999.0,67,-99.99,,,-99.99,,2013-02-05 13:10:00,
2013-02-05 08:20:00,-1.0,0.0,-100.00,North,-999,-999.0,-999.0,0,-99.99,,,-99.99,,2013-02-05 13:20:00,
2013-02-05 08:30:00,21.6,12.0,-100.00,North,-999,-999.0,-999.0,66,-99.99,,,-99.99,,2013-02-05 13:30:00,
2013-02-05 08:40:00,21.4,11.8,-100.00,North,-999,-999.0,-999.0,66,-99.99,,,-99.99,,2013-02-05 13:40:00,
2013-02-05 08:50:00,-1.0,0.0,-100.00,North,-999,-999.0,-999.0,0,-99.99,,,-99.99,,2013-02-05 13:50:00,
2013-02-05 09:01:00,22.1,12.6,-100.00,North,-999,-999.0,-999.0,66,-99.99,,,-99.99,,2013-02-05 14:01:00,
2013-02-05 09:10:00,22.5,12.6,-100.00,North,-999,-999.0,-999.0,65,-99.99,,,-99.99,,2013-02-05 14:10:00,
2013-02-05 09:20:00,22.1,12.2,-100.00,North,-999,-999.0,-999.0,65,-99.99,,,-99.99,,2013-02-05 14:20:00,
2013-02-05 09:30:00,22.7,12.7,-100.00,North,-999,-999.0,-999.0,65,-99.99,,,-99.99,,2013-02-05 14:30:00,
2013-02-05 09:40:00,23.2,13.6,-100.00,North,-999,-999.0,-999.0,66,-99.99,,,-99.99,,2013-02-05 14:40:00,
2013-02-05 09:50:00,24.1,14.4,-100.00,North,-999,-999.0,-999.0,66,-99.99,,,-99.99,,2013-02-05 14:50:00,
2013-02-05 10:00:00,24.7,14.7,-100.00,North,-999,-999.0,-999.0,65,-99.99,,,-99.99,,2013-02-05 15:00:00,
2013-02-05 10:10:00,25.7,15.3,-100.00,North,-999,-999.0,-999.0,64,-99.99,,,-99.99,,2013-02-05 15:10:00,
2013-02-05 10:20:00,25.9,15.4,-100.00,North,-999,-999.0,-999.0,64,-99.99,,,-99.99,,2013-02-05 15:20:00,
2013-02-05 10:30:00,27.0,16.2,-100.00,North,-999,-999.0,-999.0,63,-99.99,,,-99.99,,2013-02-05 15:30:00,
2013-02-05 10:40:00,26.6,15.4,-100.00,North,-999,-999.0,-999.0,62,-99.99,,,-99.99,,2013-02-05 15:40:00,
2013-02-05 10:50:00,25.2,13.6,-100.00,North,-999,-999.0,-999.0,61,-99.99,,,-99.99,,2013-02-05 15:50:00,
2013-02-05 11:00:00,27.4,15.8,-100.00,North,-999,-999.0,-999.0,61,-99.99,,,-99.99,,2013-02-05 16:00:00,
2013-02-05 11:10:00,27.2,16.3,-100.00,North,-999,-999.0,-999.0,63,-99.99,,,-99.99,,2013-02-05 16:10:00,
2013-02-05 11:20:00,27.9,16.2,-100.00,North,-999,-999.0,-999.0,61,-99.99,,,-99.99,,2013-02-05 16:20:00,
2013-02-05 11:30:00,27.7,15.6,-100.00,North,-999,-999.0,-999.0,60,-99.99,,,-99.99,,2013-02-05 16:30:00,
2013-02-05 11:40:00,-1.0,0.0,-100.00,North,-999,-999.0,-999.0,0,-99.99,,,-99.99,,2013-02-05 16:40:00,
2013-02-05 11:50:00,-1.0,0.0,-100.00,North,-999,-999.0,-999.0,0,-99.99,,,-99.99,,2013-02-05 16:50:00,
2013-02-05 12:00:00,29.3,17.2,-100.00,North,-999,-999.0,-999.0,60,-99.99,,,-99.99,,2013-02-05 17:00:00,
2013-02-05 12:10:00,29.7,17.6,-100.00,North,-999,-999.0,-999.0,60,-99.99,,,-99.99,,2013-02-05 17:10:00,
2013-02-05 12:20:00,-1.0,0.0,-100.00,North,-999,-999.0,-999.0,0,-99.99,,,-99.99,,2013-02-05 17:20:00,
2013-02-05 12:30:00,28.1,15.3,-100.00,North,-999,-999.0,-999.0,58,-99.99,,,-99.99,,2013-02-05 17:30:00,
2013-02-05 12:40:00,-1.0,0.0,-100.00,North,-999,-999.0,-999.0,0,-99.99,,,-99.99,,2013-02-05 17:40:00,
2013-02-05 12:50:00,-1.0,0.0,-100.00,North,-999,-999.0,-999.0,0,-99.99,,,-99.99,,2013-02-05 17:50:00,
2013-02-05 13:00:00,31.0,18.3,-100.00,North,-999,-999.0,-999.0,59,-99.99,,,-99.99,,2013-02-05 18:00:00,
2013-02-05 13:10:00,30.2,17.2,-100.00,North,-999,-999.0,-999.0,58,-99.99,,,-99.99,,2013-02-05 18:10:00,
2013-02-05 13:20:00,28.1,15.3,-100.00,North,-999,-999.0,-999.0,58,-99.99,,,-99.99,,2013-02-05 18:20:00,
2013-02-05 13:30:00,29.7,17.1,-100.00,North,-999,-999.0,-999.0,59,-99.99,,,-99.99,,2013-02-05 18:30:00,
2013-02-05 13:40:00,30.2,17.6,-100.00,North,-999,-999.0,-999.0,59,-99.99,,,-99.99,,2013-02-05 18:40:00,
2013-02-05 13:50:00,-1.0,0.0,-100.00,North,-999,-999.0,-999.0,0,-99.99,,,-99.99,,2013-02-05 18:50:00,
2013-02-05 14:00:00,29.2,17.1,-100.00,North,-999,-999.0,-999.0,60,-99.99,,,-99.99,,2013-02-05 19:00:00,
2013-02-05 14:10:00,29.2,17.1,-100.00,North,-999,-999.0,-999.0,60,-99.99,,,-99.99,,2013-02-05 19:10:00,
2013-02-05 14:20:00,30.2,18.0,-100.00,North,-999,-999.0,-999.0,60,-99.99,,,-99.99,,2013-02-05 19:20:00,
2013-02-05 14:30:00,29.0,16.9,-100.00,North,-999,-999.0,-999.0,60,-99.99,,,-99.99,,2013-02-05 19:30:00,
2013-02-05 14:40:00,29.0,17.2,-100.00,North,-999,-999.0,-999.0,61,-99.99,,,-99.99,,2013-02-05 19:40:00,
2013-02-05 14:50:00,28.3,16.2,-100.00,North,-999,-999.0,-999.0,60,-99.99,,,-99.99,,2013-02-05 19:50:00,
2013-02-05 15:00:00,28.6,16.9,-100.00,North,-999,-999.0,-999.0,61,-99.99,,,-99.99,,2013-02-05 20:00:00,
2013-02-05 15:10:00,-1.0,0.0,-100.00,North,-999,-999.0,-999.0,0,-99.99,,,-99.99,,2013-02-05 20:10:00,
2013-02-05 15:20:00,27.4,15.8,-100.00,North,-999,-999.0,-999.0,61,-99.99,,,-99.99,,2013-02-05 20:20:00,
2013-02-05 15:30:00,26.8,15.6,-100.00,North,-999,-999.0,-999.0,62,-99.99,,,-99.99,,2013-02-05 20:30:00,
2013-02-05 15:40:00,26.8,16.0,-100.00,North,-999,-999.0,-999.0,63,-99.99,,,-99.99,,2013-02-05 20:40:00,
2013-02-05 15:50:00,25.9,15.4,-100.00,North,-999,-999.0,-999.0,64,-99.99,,,-99.99,,2013-02-05 20:50:00,
2013-02-05 16:00:00,25.7,15.6,-100.00,North,-999,-999.0,-999.0,65,-99.99,,,-99.99,,2013-02-05 21:00:00,
2013-02-05 16:10:00,25.4,15.6,-100.00,North,-999,-999.0,-999.0,66,-99.99,,,-99.99,,2013-02-05 21:10:00,
2013-02-05 16:20:00,-1.0,0.0,-100.00,North,-999,-999.0,-999.0,0,-99.99,,,-99.99,,2013-02-05 21:20:00,
2013-02-05 16:30:00,25.0,16.0,-100.00,North,-999,-999.0,-999.0,68,-99.99,,,-99.99,,2013-02-05 21:30:00,
2013-02-05 16:40:00,24.8,15.8,-100.00,North,-999,-999.0,-999.0,68,-99.99,,,-99.99,,2013-02-05 21:40:00,
2013-02-05 16:50:00,24.3,15.6,-100.00,North,-999,-999.0,-999.0,69,-99.99,,,-99.99,,2013-02-05 21:50:00,
2013-02-05 17:01:00,24.5,16.2,-100.00,North,-999,-999.0,-999.0,70,-99.99,,,-99.99,,2013-02-05 22:01:00,
2013-02-05 17:10:00,23.9,15.6,-100.00,North,-999,-999.0,-999.0,70,-99.99,,,-99.99,,2013-02-05 22:10:00,
2013-02-05 17:20:00,23.8,15.8,-100.00,North,-999,-999.0,-999.0,71,-99.99,,,-99.99,,2013-02-05 22:20:00,
2013-02-05 17:30:00,23.6,15.6,-100.00,North,-999,-999.0,-999.0,71,-99.99,,,-99.99,,2013-02-05 22:30:00,
2013-02-05 17:40:00,23.6,16.0,-100.00,North,-999,-999.0,-999.0,72,-99.99,,,-99.99,,2013-02-05 22:40:00,
2013-02-05 17:50:00,23.6,16.0,-100.00,North,-999,-999.0,-999.0,72,-99.99,,,-99.99,,2013-02-05 22:50:00,
2013-02-05 18:00:00,23.6,16.2,-100.00,North,-999,-999.0,-999.0,73,-99.99,,,-99.99,,2013-02-05 23:00:00,
2013-02-05 18:10:00,23.6,16.2,-100.00,North,-999,-999.0,-999.0,73,-99.99,,,-99.99,,2013-02-05 23:10:00,
2013-02-05 18:20:00,23.2,16.2,-100.00,North,-999,-999.0,-999.0,74,-99.99,,,-99.99,,2013-02-05 23:20:00,
2013-02-05 18:30:00,22.9,16.2,-100.00,North,-999,-999.0,-999.0,75,-99.99,,,-99.99,,2013-02-05 23:30:00,
2013-02-05 18:40:00,22.7,16.5,-100.00,North,-999,-999.0,-999.0,77,-99.99,,,-99.99,,2013-02-05 23:40:00,
2013-02-05 18:50:00,22.5,16.3,-100.00,North,-999,-999.0,-999.0,77,-99.99,,,-99.99,,2013-02-05 23:50:00,
2013-02-05 19:00:00,22.5,16.7,-100.00,North,-999,-999.0,-999.0,78,-99.99,,,-99.99,,2013-02-06 00:00:00,
2013-02-05 19:10:00,22.3,16.5,-100.00,North,-999,-999.0,-999.0,78,-99.99,,,-99.99,,2013-02-06 00:10:00,
2013-02-05 19:20:00,22.5,17.1,-100.00,North,-999,-999.0,-999.0,79,-99.99,,,-99.99,,2013-02-06 00:20:00,
2013-02-05 19:30:00,22.5,17.1,-100.00,North,-999,-999.0,-999.0,79,-99.99,,,-99.99,,2013-02-06 00:30:00,
2013-02-05 19:40:00,22.3,16.9,-100.00,North,-999,-999.0,-999.0,79,-99.99,,,-99.99,,2013-02-06 00:40:00,
2013-02-05 19:50:00,22.1,16.5,-100.00,North,-999,-999.0,-999.0,79,-99.99,,,-99.99,,2013-02-06 00:50:00,
2013-02-05 20:01:00,22.3,17.1,-100.00,North,-999,-999.0,-999.0,80,-99.99,,,-99.99,,2013-02-06 01:01:00,
2013-02-05 20:10:00,21.8,16.5,-100.00,North,-999,-999.0,-999.0,80,-99.99,,,-99.99,,2013-02-06 01:10:00,
2013-02-05 20:20:00,-1.0,0.0,-100.00,North,-999,-999.0,-999.0,0,-99.99,,,-99.99,,2013-02-06 01:20:00,
2013-02-05 20:30:00,22.3,17.1,-100.00,North,-999,-999.0,-999.0,80,-99.99,,,-99.99,,2013-02-06 01:30:00,
2013-02-05 20:40:00,-1.0,0.0,-100.00,North,-999,-999.0,-999.0,0,-99.99,,,-99.99,,2013-02-06 01:40:00,
2013-02-05 20:50:00,22.3,17.4,-100.00,North,-999,-999.0,-999.0,81,-99.99,,,-99.99,,2013-02-06 01:50:00,
2013-02-05 21:00:00,22.3,17.4,-100.00,North,-999,-999.0,-999.0,81,-99.99,,,-99.99,,2013-02-06 02:00:00,
2013-02-05 21:10:00,22.3,17.4,-100.00,North,-999,-999.0,-999.0,81,-99.99,,,-99.99,,2013-02-06 02:10:00,
2013-02-05 21:20:00,22.1,17.2,-100.00,North,-999,-999.0,-999.0,81,-99.99,,,-99.99,,2013-02-06 02:20:00,
2013-02-05 21:30:00,22.1,17.2,-100.00,North,-999,-999.0,-999.0,81,-99.99,,,-99.99,,2013-02-06 02:30:00,
2013-02-05 21:40:00,22.1,17.2,-100.00,North,-999,-999.0,-999.0,81,-99.99,,,-99.99,,2013-02-06 02:40:00,
2013-02-05 21:50:00,22.0,17.1,-100.00,North,-999,-999.0,-999.0,81,-99.99,,,-99.99,,2013-02-06 02:50:00,
2013-02-05 22:00:00,22.0,17.1,-100.00,North,-999,-999.0,-999.0,81,-99.99,,,-99.99,,2013-02-06 03:00:00,
2013-02-05 22:10:00,22.0,17.1,-100.00,North,-999,-999.0,-999.0,81,-99.99,,,-99.99,,2013-02-06 03:10:00,
2013-02-05 22:20:00,22.3,17.4,-100.00,North,-999,-999.0,-999.0,81,-99.99,,,-99.99,,2013-02-06 03:20:00,
2013-02-05 22:30:00,22.3,17.4,-100.00,North,-999,-999.0,-999.0,81,-99.99,,,-99.99,,2013-02-06 03:30:00,
2013-02-05 22:40:00,22.3,17.4,-100.00,North,-999,-999.0,-999.0,81,-99.99,,,-99.99,,2013-02-06 03:40:00,
2013-02-05 22:50:00,22.3,17.4,-100.00,North,-999,-999.0,-999.0,81,-99.99,,,-99.99,,2013-02-06 03:50:00,
2013-02-05 23:00:00,22.0,17.1,-100.00,North,-999,-999.0,-999.0,81,-99.99,,,-99.99,,2013-02-06 04:00:00,
2013-02-05 23:10:00,22.1,17.4,-100.00,North,-999,-999.0,-999.0,82,-99.99,,,-99.99,,2013-02-06 04:10:00,
2013-02-05 23:20:00,22.1,17.4,-100.00,North,-999,-999.0,-999.0,82,-99.99,,,-99.99,,2013-02-06 04:20:00,
2013-02-05 23:30:00,22.1,17.4,-100.00,North,-999,-999.0,-999.0,82,-99.99,,,-99.99,,2013-02-06 04:30:00,
2013-02-05 23:40:00,-1.0,0.0,-100.00,North,-999,-999.0,-999.0,0,-99.99,,,-99.99,,2013-02-06 04:40:00,
2013-02-05 23:50:00,22.3,17.6,-100.00,North,-999,-999.0,-999.0,82,-99.99,,,-99.99,,2013-02-06 04:50:00,